sensor_id;sensor_type;location;lat;lon;timestamp;P1;durP1;ratioP1;P2;durP2;ratioP2
72584;SDS011;60618;40.084;32.908;2023-06-26T00:01:17;10.20;;;6.10;;
72584;SDS011;60618;40.084;32.908;2023-06-26T00:03:44;8.67;;;5.70;;
72584;SDS011;60618;40.084;32.908;2023-06-26T00:06:11;8.23;;;5.80;;
72584;SDS011;60618;40.084;32.908;2023-06-26T00:08:38;10.43;;;6.38;;
72584;SDS011;60618;40.084;32.908;2023-06-26T00:11:05;9.63;;;5.88;;
72584;SDS011;60618;40.084;32.908;2023-06-26T00:13:32;8.60;;;6.10;;
72584;SDS011;60618;40.084;32.908;2023-06-26T00:15:59;9.33;;;6.17;;
72584;SDS011;60618;40.084;32.908;2023-06-26T00:18:25;10.68;;;6.20;;
72584;SDS011;60618;40.084;32.908;2023-06-26T00:20:52;10.68;;;6.40;;
72584;SDS011;60618;40.084;32.908;2023-06-26T00:23:19;9.35;;;5.82;;
72584;SDS011;60618;40.084;32.908;2023-06-26T00:25:46;9.45;;;6.13;;
72584;SDS011;60618;40.084;32.908;2023-06-26T00:28:13;9.07;;;6.10;;
72584;SDS011;60618;40.084;32.908;2023-06-26T00:30:40;10.73;;;6.40;;
72584;SDS011;60618;40.084;32.908;2023-06-26T00:33:07;8.77;;;5.90;;
72584;SDS011;60618;40.084;32.908;2023-06-26T00:35:34;9.02;;;5.78;;
72584;SDS011;60618;40.084;32.908;2023-06-26T00:38:01;9.48;;;5.70;;
72584;SDS011;60618;40.084;32.908;2023-06-26T00:40:28;9.37;;;5.97;;
72584;SDS011;60618;40.084;32.908;2023-06-26T00:42:55;9.65;;;5.63;;
72584;SDS011;60618;40.084;32.908;2023-06-26T00:45:22;9.02;;;6.10;;
72584;SDS011;60618;40.084;32.908;2023-06-26T00:48:07;11.77;;;6.60;;
72584;SDS011;60618;40.084;32.908;2023-06-26T00:50:37;10.30;;;5.97;;
72584;SDS011;60618;40.084;32.908;2023-06-26T00:53:04;8.97;;;5.80;;
72584;SDS011;60618;40.084;32.908;2023-06-26T00:55:32;10.40;;;5.68;;
72584;SDS011;60618;40.084;32.908;2023-06-26T00:57:59;8.90;;;5.70;;
72584;SDS011;60618;40.084;32.908;2023-06-26T01:00:26;8.45;;;5.32;;
72584;SDS011;60618;40.084;32.908;2023-06-26T01:02:53;10.13;;;5.90;;
72584;SDS011;60618;40.084;32.908;2023-06-26T01:05:20;8.47;;;5.20;;
72584;SDS011;60618;40.084;32.908;2023-06-26T01:07:47;9.27;;;5.20;;
72584;SDS011;60618;40.084;32.908;2023-06-26T01:10:18;8.18;;;5.15;;
72584;SDS011;60618;40.084;32.908;2023-06-26T01:12:45;8.10;;;5.40;;
72584;SDS011;60618;40.084;32.908;2023-06-26T01:15:12;8.27;;;5.50;;
72584;SDS011;60618;40.084;32.908;2023-06-26T01:17:39;8.67;;;5.10;;
72584;SDS011;60618;40.084;32.908;2023-06-26T01:20:07;9.50;;;5.28;;
72584;SDS011;60618;40.084;32.908;2023-06-26T01:22:39;8.25;;;5.15;;
72584;SDS011;60618;40.084;32.908;2023-06-26T01:27:55;11.18;;;6.40;;
72584;SDS011;60618;40.084;32.908;2023-06-26T01:30:23;12.17;;;7.07;;
72584;SDS011;60618;40.084;32.908;2023-06-26T01:32:51;14.13;;;7.47;;
72584;SDS011;60618;40.084;32.908;2023-06-26T01:35:18;10.40;;;6.22;;
72584;SDS011;60618;40.084;32.908;2023-06-26T01:37:46;11.52;;;7.07;;
72584;SDS011;60618;40.084;32.908;2023-06-26T01:40:13;12.10;;;7.63;;
72584;SDS011;60618;40.084;32.908;2023-06-26T01:42:40;12.83;;;7.60;;
72584;SDS011;60618;40.084;32.908;2023-06-26T01:45:07;14.00;;;6.78;;
72584;SDS011;60618;40.084;32.908;2023-06-26T01:47:42;9.48;;;5.35;;
72584;SDS011;60618;40.084;32.908;2023-06-26T01:50:17;9.82;;;5.70;;
72584;SDS011;60618;40.084;32.908;2023-06-26T01:55:28;10.90;;;6.47;;
72584;SDS011;60618;40.084;32.908;2023-06-26T01:58:01;11.05;;;6.80;;
72584;SDS011;60618;40.084;32.908;2023-06-26T02:00:29;9.10;;;5.55;;
72584;SDS011;60618;40.084;32.908;2023-06-26T02:02:57;9.73;;;5.88;;
72584;SDS011;60618;40.084;32.908;2023-06-26T02:05:24;8.63;;;5.18;;
72584;SDS011;60618;40.084;32.908;2023-06-26T02:07:51;7.93;;;4.63;;
72584;SDS011;60618;40.084;32.908;2023-06-26T02:10:18;8.48;;;4.57;;
72584;SDS011;60618;40.084;32.908;2023-06-26T02:12:45;8.38;;;4.82;;
72584;SDS011;60618;40.084;32.908;2023-06-26T02:15:12;7.55;;;4.93;;
72584;SDS011;60618;40.084;32.908;2023-06-26T02:17:39;7.32;;;4.50;;
72584;SDS011;60618;40.084;32.908;2023-06-26T02:20:06;7.33;;;4.40;;
72584;SDS011;60618;40.084;32.908;2023-06-26T02:22:34;8.55;;;4.75;;
72584;SDS011;60618;40.084;32.908;2023-06-26T02:25:01;8.00;;;4.60;;
72584;SDS011;60618;40.084;32.908;2023-06-26T02:27:31;7.68;;;4.47;;
72584;SDS011;60618;40.084;32.908;2023-06-26T02:29:58;9.18;;;5.60;;
72584;SDS011;60618;40.084;32.908;2023-06-26T02:32:25;8.50;;;5.00;;
72584;SDS011;60618;40.084;32.908;2023-06-26T02:34:52;12.55;;;6.20;;
72584;SDS011;60618;40.084;32.908;2023-06-26T02:37:19;8.77;;;5.90;;
72584;SDS011;60618;40.084;32.908;2023-06-26T02:39:46;10.77;;;6.43;;
72584;SDS011;60618;40.084;32.908;2023-06-26T02:42:13;9.70;;;6.28;;
72584;SDS011;60618;40.084;32.908;2023-06-26T02:44:40;10.03;;;6.50;;
72584;SDS011;60618;40.084;32.908;2023-06-26T02:47:07;9.07;;;6.10;;
72584;SDS011;60618;40.084;32.908;2023-06-26T02:49:34;8.30;;;5.20;;
72584;SDS011;60618;40.084;32.908;2023-06-26T02:52:01;8.27;;;5.28;;
72584;SDS011;60618;40.084;32.908;2023-06-26T02:54:28;9.20;;;5.55;;
72584;SDS011;60618;40.084;32.908;2023-06-26T02:56:55;9.83;;;6.10;;
72584;SDS011;60618;40.084;32.908;2023-06-26T02:59:22;10.23;;;6.20;;
72584;SDS011;60618;40.084;32.908;2023-06-26T03:01:49;11.13;;;6.32;;
72584;SDS011;60618;40.084;32.908;2023-06-26T03:04:16;10.00;;;6.20;;
72584;SDS011;60618;40.084;32.908;2023-06-26T03:06:43;9.57;;;5.63;;
72584;SDS011;60618;40.084;32.908;2023-06-26T03:09:10;10.73;;;7.03;;
72584;SDS011;60618;40.084;32.908;2023-06-26T03:11:37;11.02;;;6.32;;
72584;SDS011;60618;40.084;32.908;2023-06-26T03:14:04;8.50;;;6.05;;
72584;SDS011;60618;40.084;32.908;2023-06-26T03:16:31;8.88;;;5.10;;
72584;SDS011;60618;40.084;32.908;2023-06-26T03:18:58;8.43;;;4.95;;
72584;SDS011;60618;40.084;32.908;2023-06-26T03:21:25;10.40;;;5.63;;
72584;SDS011;60618;40.084;32.908;2023-06-26T03:23:52;9.75;;;6.07;;
72584;SDS011;60618;40.084;32.908;2023-06-26T03:26:19;8.57;;;5.55;;
72584;SDS011;60618;40.084;32.908;2023-06-26T03:28:46;9.77;;;5.25;;
72584;SDS011;60618;40.084;32.908;2023-06-26T03:31:13;9.77;;;5.00;;
72584;SDS011;60618;40.084;32.908;2023-06-26T03:33:40;8.87;;;4.67;;
72584;SDS011;60618;40.084;32.908;2023-06-26T03:36:06;7.93;;;4.88;;
72584;SDS011;60618;40.084;32.908;2023-06-26T03:38:33;9.23;;;5.43;;
72584;SDS011;60618;40.084;32.908;2023-06-26T03:41:00;10.05;;;5.10;;
72584;SDS011;60618;40.084;32.908;2023-06-26T03:43:27;10.65;;;5.13;;
72584;SDS011;60618;40.084;32.908;2023-06-26T03:45:54;10.23;;;6.20;;
72584;SDS011;60618;40.084;32.908;2023-06-26T03:48:21;11.02;;;6.90;;
72584;SDS011;60618;40.084;32.908;2023-06-26T03:50:48;12.63;;;6.85;;
72584;SDS011;60618;40.084;32.908;2023-06-26T03:53:15;10.55;;;6.80;;
72584;SDS011;60618;40.084;32.908;2023-06-26T03:55:42;9.27;;;6.38;;
72584;SDS011;60618;40.084;32.908;2023-06-26T03:58:09;9.70;;;5.70;;
72584;SDS011;60618;40.084;32.908;2023-06-26T04:00:36;12.60;;;7.15;;
72584;SDS011;60618;40.084;32.908;2023-06-26T04:03:03;11.93;;;6.53;;
72584;SDS011;60618;40.084;32.908;2023-06-26T04:05:30;11.40;;;6.78;;
72584;SDS011;60618;40.084;32.908;2023-06-26T04:07:57;9.80;;;6.68;;
72584;SDS011;60618;40.084;32.908;2023-06-26T04:10:24;11.97;;;6.60;;
72584;SDS011;60618;40.084;32.908;2023-06-26T04:12:51;10.25;;;6.32;;
72584;SDS011;60618;40.084;32.908;2023-06-26T04:15:18;11.75;;;7.20;;
72584;SDS011;60618;40.084;32.908;2023-06-26T04:17:45;12.15;;;7.15;;
72584;SDS011;60618;40.084;32.908;2023-06-26T04:20:12;12.73;;;7.25;;
72584;SDS011;60618;40.084;32.908;2023-06-26T04:22:39;11.50;;;7.30;;
72584;SDS011;60618;40.084;32.908;2023-06-26T04:25:06;18.00;;;7.20;;
72584;SDS011;60618;40.084;32.908;2023-06-26T04:27:33;12.73;;;7.65;;
72584;SDS011;60618;40.084;32.908;2023-06-26T04:30:02;13.40;;;7.60;;
72584;SDS011;60618;40.084;32.908;2023-06-26T04:32:30;13.48;;;7.25;;
72584;SDS011;60618;40.084;32.908;2023-06-26T04:34:57;12.90;;;7.10;;
72584;SDS011;60618;40.084;32.908;2023-06-26T04:37:24;11.00;;;7.82;;
72584;SDS011;60618;40.084;32.908;2023-06-26T04:39:51;12.20;;;7.57;;
72584;SDS011;60618;40.084;32.908;2023-06-26T04:42:18;15.25;;;7.88;;
72584;SDS011;60618;40.084;32.908;2023-06-26T04:44:45;9.60;;;6.22;;
72584;SDS011;60618;40.084;32.908;2023-06-26T04:47:11;9.60;;;6.00;;
72584;SDS011;60618;40.084;32.908;2023-06-26T04:49:39;8.77;;;5.60;;
72584;SDS011;60618;40.084;32.908;2023-06-26T04:52:05;11.13;;;6.53;;
72584;SDS011;60618;40.084;32.908;2023-06-26T04:54:32;12.52;;;7.00;;
72584;SDS011;60618;40.084;32.908;2023-06-26T04:56:59;7.90;;;5.57;;
72584;SDS011;60618;40.084;32.908;2023-06-26T04:59:26;8.30;;;5.20;;
72584;SDS011;60618;40.084;32.908;2023-06-26T05:01:53;7.32;;;4.63;;
72584;SDS011;60618;40.084;32.908;2023-06-26T05:04:21;9.50;;;5.22;;
72584;SDS011;60618;40.084;32.908;2023-06-26T05:06:48;8.65;;;5.03;;
72584;SDS011;60618;40.084;32.908;2023-06-26T05:09:15;10.25;;;5.50;;
72584;SDS011;60618;40.084;32.908;2023-06-26T05:11:42;11.67;;;5.20;;
72584;SDS011;60618;40.084;32.908;2023-06-26T05:14:09;7.57;;;4.95;;
72584;SDS011;60618;40.084;32.908;2023-06-26T05:16:36;7.75;;;5.10;;
72584;SDS011;60618;40.084;32.908;2023-06-26T05:19:03;7.90;;;4.85;;
72584;SDS011;60618;40.084;32.908;2023-06-26T05:21:29;7.00;;;4.57;;
72584;SDS011;60618;40.084;32.908;2023-06-26T05:23:57;6.70;;;4.20;;
72584;SDS011;60618;40.084;32.908;2023-06-26T05:26:24;6.68;;;4.88;;
72584;SDS011;60618;40.084;32.908;2023-06-26T05:28:52;6.57;;;4.10;;
72584;SDS011;60618;40.084;32.908;2023-06-26T05:31:19;6.75;;;4.18;;
72584;SDS011;60618;40.084;32.908;2023-06-26T05:33:47;8.68;;;4.50;;
72584;SDS011;60618;40.084;32.908;2023-06-26T05:36:15;8.30;;;5.10;;
72584;SDS011;60618;40.084;32.908;2023-06-26T05:38:43;8.27;;;4.47;;
72584;SDS011;60618;40.084;32.908;2023-06-26T05:41:10;8.15;;;4.10;;
72584;SDS011;60618;40.084;32.908;2023-06-26T06:49:37;8.20;;;4.35;;
72584;SDS011;60618;40.084;32.908;2023-06-26T06:52:04;10.10;;;5.40;;
72584;SDS011;60618;40.084;32.908;2023-06-26T06:54:31;8.48;;;5.75;;
72584;SDS011;60618;40.084;32.908;2023-06-26T06:57:17;16.40;;;10.80;;
72584;SDS011;60618;40.084;32.908;2023-06-26T06:59:44;9.05;;;4.60;;
72584;SDS011;60618;40.084;32.908;2023-06-26T07:02:10;14.00;;;10.23;;
72584;SDS011;60618;40.084;32.908;2023-06-26T07:04:38;11.20;;;5.68;;
72584;SDS011;60618;40.084;32.908;2023-06-26T07:07:04;7.25;;;4.47;;
72584;SDS011;60618;40.084;32.908;2023-06-26T07:09:32;7.63;;;4.60;;
72584;SDS011;60618;40.084;32.908;2023-06-26T07:11:58;9.20;;;5.88;;
72584;SDS011;60618;40.084;32.908;2023-06-26T07:14:25;8.00;;;5.03;;
72584;SDS011;60618;40.084;32.908;2023-06-26T07:16:52;10.13;;;4.20;;
72584;SDS011;60618;40.084;32.908;2023-06-26T07:19:19;9.95;;;4.50;;
72584;SDS011;60618;40.084;32.908;2023-06-26T07:21:46;9.10;;;4.40;;
72584;SDS011;60618;40.084;32.908;2023-06-26T07:24:13;9.13;;;4.22;;
72584;SDS011;60618;40.084;32.908;2023-06-26T07:26:40;9.60;;;4.65;;
72584;SDS011;60618;40.084;32.908;2023-06-26T07:29:12;8.48;;;4.47;;
72584;SDS011;60618;40.084;32.908;2023-06-26T07:31:38;8.77;;;5.78;;
72584;SDS011;60618;40.084;32.908;2023-06-26T07:34:05;11.23;;;6.13;;
72584;SDS011;60618;40.084;32.908;2023-06-26T07:36:32;10.20;;;5.60;;
72584;SDS011;60618;40.084;32.908;2023-06-26T07:38:59;7.95;;;5.20;;
72584;SDS011;60618;40.084;32.908;2023-06-26T07:41:26;19.50;;;15.18;;
72584;SDS011;60618;40.084;32.908;2023-06-26T07:43:54;9.43;;;5.45;;
72584;SDS011;60618;40.084;32.908;2023-06-26T07:46:24;7.80;;;4.07;;
72584;SDS011;60618;40.084;32.908;2023-06-26T07:48:51;7.97;;;4.55;;
72584;SDS011;60618;40.084;32.908;2023-06-26T07:51:18;6.38;;;3.85;;
72584;SDS011;60618;40.084;32.908;2023-06-26T07:53:45;7.47;;;4.60;;
72584;SDS011;60618;40.084;32.908;2023-06-26T07:56:12;7.65;;;4.60;;
72584;SDS011;60618;40.084;32.908;2023-06-26T07:58:39;6.97;;;4.00;;
72584;SDS011;60618;40.084;32.908;2023-06-26T08:01:06;8.07;;;5.22;;
72584;SDS011;60618;40.084;32.908;2023-06-26T08:03:33;7.88;;;5.00;;
72584;SDS011;60618;40.084;32.908;2023-06-26T08:06:01;9.63;;;4.40;;
72584;SDS011;60618;40.084;32.908;2023-06-26T08:08:29;13.15;;;7.00;;
72584;SDS011;60618;40.084;32.908;2023-06-26T08:10:56;11.37;;;7.90;;
72584;SDS011;60618;40.084;32.908;2023-06-26T08:13:22;12.00;;;7.45;;
72584;SDS011;60618;40.084;32.908;2023-06-26T08:15:49;13.88;;;8.52;;
72584;SDS011;60618;40.084;32.908;2023-06-26T08:18:17;13.38;;;8.52;;
72584;SDS011;60618;40.084;32.908;2023-06-26T08:20:44;14.38;;;9.68;;
72584;SDS011;60618;40.084;32.908;2023-06-26T08:23:11;13.33;;;8.87;;
72584;SDS011;60618;40.084;32.908;2023-06-26T08:25:38;17.90;;;10.25;;
72584;SDS011;60618;40.084;32.908;2023-06-26T08:28:05;19.08;;;11.05;;
72584;SDS011;60618;40.084;32.908;2023-06-26T08:30:32;14.98;;;9.00;;
72584;SDS011;60618;40.084;32.908;2023-06-26T08:32:59;18.63;;;10.07;;
72584;SDS011;60618;40.084;32.908;2023-06-26T08:35:26;15.53;;;10.30;;
72584;SDS011;60618;40.084;32.908;2023-06-26T08:37:53;13.88;;;8.98;;
72584;SDS011;60618;40.084;32.908;2023-06-26T08:40:20;15.32;;;9.10;;
72584;SDS011;60618;40.084;32.908;2023-06-26T08:42:48;15.57;;;8.05;;
72584;SDS011;60618;40.084;32.908;2023-06-26T08:45:15;14.20;;;9.50;;
72584;SDS011;60618;40.084;32.908;2023-06-26T08:47:42;11.83;;;8.20;;
72584;SDS011;60618;40.084;32.908;2023-06-26T08:50:12;12.70;;;7.57;;
72584;SDS011;60618;40.084;32.908;2023-06-26T08:52:43;13.75;;;9.10;;
72584;SDS011;60618;40.084;32.908;2023-06-26T08:55:17;9.80;;;6.07;;
72584;SDS011;60618;40.084;32.908;2023-06-26T08:57:47;11.15;;;5.88;;
72584;SDS011;60618;40.084;32.908;2023-06-26T09:00:14;10.37;;;6.13;;
72584;SDS011;60618;40.084;32.908;2023-06-26T09:02:42;11.57;;;6.45;;
72584;SDS011;60618;40.084;32.908;2023-06-26T09:05:12;8.52;;;5.90;;
72584;SDS011;60618;40.084;32.908;2023-06-26T09:07:39;10.75;;;5.90;;
72584;SDS011;60618;40.084;32.908;2023-06-26T09:10:06;9.32;;;5.43;;
72584;SDS011;60618;40.084;32.908;2023-06-26T09:12:33;7.83;;;4.43;;
72584;SDS011;60618;40.084;32.908;2023-06-26T09:15:01;8.50;;;4.82;;
72584;SDS011;60618;40.084;32.908;2023-06-26T09:17:29;6.47;;;4.47;;
72584;SDS011;60618;40.084;32.908;2023-06-26T09:19:58;6.35;;;4.15;;
72584;SDS011;60618;40.084;32.908;2023-06-26T09:22:25;8.15;;;4.85;;
72584;SDS011;60618;40.084;32.908;2023-06-26T09:24:52;8.90;;;4.77;;
72584;SDS011;60618;40.084;32.908;2023-06-26T09:27:20;7.30;;;4.05;;
72584;SDS011;60618;40.084;32.908;2023-06-26T09:29:47;8.25;;;5.00;;
72584;SDS011;60618;40.084;32.908;2023-06-26T09:32:15;9.77;;;5.68;;
72584;SDS011;60618;40.084;32.908;2023-06-26T09:34:42;8.45;;;4.13;;
72584;SDS011;60618;40.084;32.908;2023-06-26T09:37:13;7.00;;;4.00;;
72584;SDS011;60618;40.084;32.908;2023-06-26T09:39:40;7.50;;;4.28;;
72584;SDS011;60618;40.084;32.908;2023-06-26T09:42:06;8.38;;;4.50;;
72584;SDS011;60618;40.084;32.908;2023-06-26T09:44:33;8.88;;;5.20;;
72584;SDS011;60618;40.084;32.908;2023-06-26T09:47:03;7.10;;;4.80;;
72584;SDS011;60618;40.084;32.908;2023-06-26T09:49:30;9.53;;;4.70;;
72584;SDS011;60618;40.084;32.908;2023-06-26T09:51:59;9.82;;;5.25;;
72584;SDS011;60618;40.084;32.908;2023-06-26T09:54:28;10.07;;;5.20;;
72584;SDS011;60618;40.084;32.908;2023-06-26T09:56:55;7.18;;;4.15;;
72584;SDS011;60618;40.084;32.908;2023-06-26T09:59:22;6.72;;;3.70;;
72584;SDS011;60618;40.084;32.908;2023-06-26T10:01:50;8.93;;;4.00;;
72584;SDS011;60618;40.084;32.908;2023-06-26T10:04:26;8.90;;;4.55;;
72584;SDS011;60618;40.084;32.908;2023-06-26T10:06:56;7.03;;;4.70;;
72584;SDS011;60618;40.084;32.908;2023-06-26T10:09:27;9.75;;;5.72;;
72584;SDS011;60618;40.084;32.908;2023-06-26T10:11:56;8.73;;;5.68;;
72584;SDS011;60618;40.084;32.908;2023-06-26T10:14:29;8.03;;;5.10;;
72584;SDS011;60618;40.084;32.908;2023-06-26T10:17:01;7.90;;;5.00;;
72584;SDS011;60618;40.084;32.908;2023-06-26T10:19:30;7.82;;;4.90;;
72584;SDS011;60618;40.084;32.908;2023-06-26T10:21:58;8.10;;;4.65;;
72584;SDS011;60618;40.084;32.908;2023-06-26T10:24:28;5.75;;;3.95;;
72584;SDS011;60618;40.084;32.908;2023-06-26T10:26:59;7.70;;;4.30;;
72584;SDS011;60618;40.084;32.908;2023-06-26T10:29:30;8.75;;;4.93;;
72584;SDS011;60618;40.084;32.908;2023-06-26T10:31:59;8.80;;;4.30;;
72584;SDS011;60618;40.084;32.908;2023-06-26T10:34:30;6.28;;;4.13;;
72584;SDS011;60618;40.084;32.908;2023-06-26T10:37:01;10.48;;;4.30;;
72584;SDS011;60618;40.084;32.908;2023-06-26T10:39:50;6.40;;;3.40;;
72584;SDS011;60618;40.084;32.908;2023-06-26T10:42:17;6.85;;;3.97;;
72584;SDS011;60618;40.084;32.908;2023-06-26T10:44:46;6.65;;;4.28;;
72584;SDS011;60618;40.084;32.908;2023-06-26T10:47:29;6.75;;;4.25;;
72584;SDS011;60618;40.084;32.908;2023-06-26T10:50:15;6.10;;;4.13;;
72584;SDS011;60618;40.084;32.908;2023-06-26T10:53:22;6.70;;;3.97;;
72584;SDS011;60618;40.084;32.908;2023-06-26T10:55:49;6.63;;;4.20;;
72584;SDS011;60618;40.084;32.908;2023-06-26T11:03:39;8.23;;;4.32;;
72584;SDS011;60618;40.084;32.908;2023-06-26T11:06:19;6.13;;;4.40;;
72584;SDS011;60618;40.084;32.908;2023-06-26T11:08:48;8.05;;;4.70;;
72584;SDS011;60618;40.084;32.908;2023-06-26T11:11:15;7.10;;;4.40;;
72584;SDS011;60618;40.084;32.908;2023-06-26T11:13:44;10.43;;;4.97;;
72584;SDS011;60618;40.084;32.908;2023-06-26T11:16:12;5.82;;;4.40;;
72584;SDS011;60618;40.084;32.908;2023-06-26T11:18:41;5.57;;;3.33;;
72584;SDS011;60618;40.084;32.908;2023-06-26T11:21:09;6.57;;;4.00;;
72584;SDS011;60618;40.084;32.908;2023-06-26T11:23:37;5.43;;;3.80;;
72584;SDS011;60618;40.084;32.908;2023-06-26T11:26:18;5.63;;;4.00;;
72584;SDS011;60618;40.084;32.908;2023-06-26T11:28:54;5.78;;;3.50;;
72584;SDS011;60618;40.084;32.908;2023-06-26T11:33:52;5.40;;;3.25;;
72584;SDS011;60618;40.084;32.908;2023-06-26T11:36:22;7.15;;;4.28;;
72584;SDS011;60618;40.084;32.908;2023-06-26T11:38:56;6.60;;;4.20;;
72584;SDS011;60618;40.084;32.908;2023-06-26T11:41:26;7.88;;;4.35;;
72584;SDS011;60618;40.084;32.908;2023-06-26T11:43:54;6.67;;;5.43;;
72584;SDS011;60618;40.084;32.908;2023-06-26T11:46:21;7.25;;;5.32;;
72584;SDS011;60618;40.084;32.908;2023-06-26T11:48:49;7.03;;;5.30;;
72584;SDS011;60618;40.084;32.908;2023-06-26T11:51:16;8.65;;;5.38;;
72584;SDS011;60618;40.084;32.908;2023-06-26T11:53:43;6.88;;;5.10;;
72584;SDS011;60618;40.084;32.908;2023-06-26T11:56:12;7.43;;;5.40;;
72584;SDS011;60618;40.084;32.908;2023-06-26T11:58:56;7.10;;;5.22;;
72584;SDS011;60618;40.084;32.908;2023-06-26T12:01:50;7.82;;;5.72;;
72584;SDS011;60618;40.084;32.908;2023-06-26T12:04:17;6.72;;;5.15;;
72584;SDS011;60618;40.084;32.908;2023-06-26T12:06:47;7.65;;;5.30;;
72584;SDS011;60618;40.084;32.908;2023-06-26T12:09:17;7.13;;;5.20;;
72584;SDS011;60618;40.084;32.908;2023-06-26T12:11:47;7.25;;;5.30;;
72584;SDS011;60618;40.084;32.908;2023-06-26T12:14:19;6.85;;;5.00;;
72584;SDS011;60618;40.084;32.908;2023-06-26T12:16:47;7.25;;;5.40;;
72584;SDS011;60618;40.084;32.908;2023-06-26T12:19:14;7.35;;;4.97;;
72584;SDS011;60618;40.084;32.908;2023-06-26T12:24:14;9.65;;;4.82;;
72584;SDS011;60618;40.084;32.908;2023-06-26T12:26:47;8.23;;;4.80;;
72584;SDS011;60618;40.084;32.908;2023-06-26T12:29:17;8.30;;;4.47;;
72584;SDS011;60618;40.084;32.908;2023-06-26T12:31:46;6.28;;;4.57;;
72584;SDS011;60618;40.084;32.908;2023-06-26T12:34:19;8.00;;;4.53;;
72584;SDS011;60618;40.084;32.908;2023-06-26T12:36:48;6.38;;;4.63;;
72584;SDS011;60618;40.084;32.908;2023-06-26T12:39:17;5.35;;;4.15;;
72584;SDS011;60618;40.084;32.908;2023-06-26T12:44:24;5.53;;;4.13;;
72584;SDS011;60618;40.084;32.908;2023-06-26T12:47:02;7.07;;;4.20;;
72584;SDS011;60618;40.084;32.908;2023-06-26T12:49:30;5.88;;;4.10;;
72584;SDS011;60618;40.084;32.908;2023-06-26T12:51:58;10.48;;;4.35;;
72584;SDS011;60618;40.084;32.908;2023-06-26T12:54:27;8.18;;;4.28;;
72584;SDS011;60618;40.084;32.908;2023-06-26T12:56:55;6.03;;;4.10;;
72584;SDS011;60618;40.084;32.908;2023-06-26T12:59:22;6.47;;;4.80;;
72584;SDS011;60618;40.084;32.908;2023-06-26T13:01:49;9.60;;;5.78;;
72584;SDS011;60618;40.084;32.908;2023-06-26T13:04:17;7.90;;;5.25;;
72584;SDS011;60618;40.084;32.908;2023-06-26T13:06:46;7.68;;;5.45;;
72584;SDS011;60618;40.084;32.908;2023-06-26T13:09:13;7.75;;;5.35;;
72584;SDS011;60618;40.084;32.908;2023-06-26T13:11:43;8.77;;;5.20;;
72584;SDS011;60618;40.084;32.908;2023-06-26T13:14:10;8.40;;;5.53;;
72584;SDS011;60618;40.084;32.908;2023-06-26T13:16:38;8.25;;;5.70;;
72584;SDS011;60618;40.084;32.908;2023-06-26T13:19:07;7.78;;;5.80;;
72584;SDS011;60618;40.084;32.908;2023-06-26T13:21:34;8.18;;;5.93;;
72584;SDS011;60618;40.084;32.908;2023-06-26T13:24:02;9.00;;;6.40;;
72584;SDS011;60618;40.084;32.908;2023-06-26T13:26:30;8.98;;;5.90;;
72584;SDS011;60618;40.084;32.908;2023-06-26T13:29:02;8.68;;;5.90;;
72584;SDS011;60618;40.084;32.908;2023-06-26T13:31:30;11.82;;;6.57;;
72584;SDS011;60618;40.084;32.908;2023-06-26T13:34:01;9.15;;;6.82;;
72584;SDS011;60618;40.084;32.908;2023-06-26T13:36:29;10.17;;;6.60;;
72584;SDS011;60618;40.084;32.908;2023-06-26T13:38:56;8.70;;;6.45;;
72584;SDS011;60618;40.084;32.908;2023-06-26T13:41:23;17.20;;;7.95;;
72584;SDS011;60618;40.084;32.908;2023-06-26T13:43:51;10.73;;;7.10;;
72584;SDS011;60618;40.084;32.908;2023-06-26T13:46:18;11.20;;;7.30;;
72584;SDS011;60618;40.084;32.908;2023-06-26T13:48:46;8.80;;;7.03;;
72584;SDS011;60618;40.084;32.908;2023-06-26T13:51:13;10.70;;;7.10;;
72584;SDS011;60618;40.084;32.908;2023-06-26T13:53:40;9.43;;;6.50;;
72584;SDS011;60618;40.084;32.908;2023-06-26T13:56:07;11.38;;;7.38;;
72584;SDS011;60618;40.084;32.908;2023-06-26T13:58:35;9.63;;;7.10;;
72584;SDS011;60618;40.084;32.908;2023-06-26T14:01:02;9.37;;;6.73;;
72584;SDS011;60618;40.084;32.908;2023-06-26T14:03:30;7.85;;;5.82;;
72584;SDS011;60618;40.084;32.908;2023-06-26T14:05:57;10.25;;;6.20;;
72584;SDS011;60618;40.084;32.908;2023-06-26T14:08:25;8.20;;;4.82;;
72584;SDS011;60618;40.084;32.908;2023-06-26T14:10:51;10.70;;;5.60;;
72584;SDS011;60618;40.084;32.908;2023-06-26T14:13:18;7.07;;;4.77;;
72584;SDS011;60618;40.084;32.908;2023-06-26T14:15:49;10.50;;;5.13;;
72584;SDS011;60618;40.084;32.908;2023-06-26T14:18:16;8.00;;;5.63;;
72584;SDS011;60618;40.084;32.908;2023-06-26T14:20:43;8.70;;;5.50;;
72584;SDS011;60618;40.084;32.908;2023-06-26T14:23:10;7.05;;;4.80;;
72584;SDS011;60618;40.084;32.908;2023-06-26T14:25:37;7.23;;;5.40;;
72584;SDS011;60618;40.084;32.908;2023-06-26T14:28:04;8.25;;;5.20;;
72584;SDS011;60618;40.084;32.908;2023-06-26T14:30:31;9.32;;;5.70;;
72584;SDS011;60618;40.084;32.908;2023-06-26T14:32:58;11.55;;;6.47;;
72584;SDS011;60618;40.084;32.908;2023-06-26T14:35:25;10.15;;;6.53;;
72584;SDS011;60618;40.084;32.908;2023-06-26T14:37:52;10.37;;;6.20;;
72584;SDS011;60618;40.084;32.908;2023-06-26T14:40:19;8.35;;;5.97;;
72584;SDS011;60618;40.084;32.908;2023-06-26T14:42:47;7.60;;;5.78;;
72584;SDS011;60618;40.084;32.908;2023-06-26T14:45:14;12.82;;;6.65;;
72584;SDS011;60618;40.084;32.908;2023-06-26T14:47:41;8.45;;;5.60;;
72584;SDS011;60618;40.084;32.908;2023-06-26T14:50:08;7.90;;;6.33;;
72584;SDS011;60618;40.084;32.908;2023-06-26T14:52:35;9.93;;;6.68;;
72584;SDS011;60618;40.084;32.908;2023-06-26T14:55:02;12.10;;;6.53;;
72584;SDS011;60618;40.084;32.908;2023-06-26T14:57:33;9.93;;;6.45;;
72584;SDS011;60618;40.084;32.908;2023-06-26T15:00:00;9.40;;;6.60;;
72584;SDS011;60618;40.084;32.908;2023-06-26T15:02:27;10.13;;;7.07;;
72584;SDS011;60618;40.084;32.908;2023-06-26T15:04:54;9.52;;;7.10;;
72584;SDS011;60618;40.084;32.908;2023-06-26T15:07:21;12.68;;;8.10;;
72584;SDS011;60618;40.084;32.908;2023-06-26T15:09:48;12.05;;;7.80;;
72584;SDS011;60618;40.084;32.908;2023-06-26T15:12:15;11.38;;;8.20;;
72584;SDS011;60618;40.084;32.908;2023-06-26T15:14:41;14.10;;;8.10;;
72584;SDS011;60618;40.084;32.908;2023-06-26T15:17:08;15.95;;;7.50;;
72584;SDS011;60618;40.084;32.908;2023-06-26T15:19:36;11.13;;;7.13;;
72584;SDS011;60618;40.084;32.908;2023-06-26T15:22:03;12.57;;;7.60;;
72584;SDS011;60618;40.084;32.908;2023-06-26T15:24:30;12.70;;;7.40;;
72584;SDS011;60618;40.084;32.908;2023-06-26T15:26:57;9.73;;;7.40;;
72584;SDS011;60618;40.084;32.908;2023-06-26T15:29:24;13.20;;;7.10;;
72584;SDS011;60618;40.084;32.908;2023-06-26T15:31:51;11.80;;;7.22;;
72584;SDS011;60618;40.084;32.908;2023-06-26T15:34:19;10.18;;;6.53;;
72584;SDS011;60618;40.084;32.908;2023-06-26T15:36:46;10.55;;;6.80;;
72584;SDS011;60618;40.084;32.908;2023-06-26T15:39:13;11.97;;;6.60;;
72584;SDS011;60618;40.084;32.908;2023-06-26T15:41:40;9.77;;;6.32;;
72584;SDS011;60618;40.084;32.908;2023-06-26T15:44:07;10.05;;;6.00;;
72584;SDS011;60618;40.084;32.908;2023-06-26T15:46:34;11.05;;;5.97;;
72584;SDS011;60618;40.084;32.908;2023-06-26T15:49:01;7.97;;;5.03;;
72584;SDS011;60618;40.084;32.908;2023-06-26T15:51:28;6.83;;;4.80;;
72584;SDS011;60618;40.084;32.908;2023-06-26T15:53:55;7.97;;;5.10;;
72584;SDS011;60618;40.084;32.908;2023-06-26T15:56:22;7.80;;;4.85;;
72584;SDS011;60618;40.084;32.908;2023-06-26T15:58:48;9.90;;;5.07;;
72584;SDS011;60618;40.084;32.908;2023-06-26T16:01:15;8.48;;;4.80;;